ADDS METAR Data INFO
IDs: Format: Raw Decoded Include TAF

Data at: 0055 UTC 22 Oct 2017

PAIL 220053Z 35005KT 10SM FEW032 SCT110 01/M11 A2926 RMK AO2 SLP911 T00061111
PAIL 212353Z 34006KT 10SM FEW032 SCT100 01/M11 A2927 RMK AO2 SLP914 T00111106 10011 21056 58008
PAIL 212253Z 01008KT 10SM FEW032 SCT095 01/M09 A2928 RMK AO2 SLP917 T00061094
PAIL 212153Z 01010KT 10SM FEW032 SCT095 00/M09 A2929 RMK AO2 SLP922 T00001089
PAIL 212053Z 36010KT 10SM CLR M01/M10 A2929 RMK AO2 SLP922 T10061100 58002
PAIL 211953Z 36008KT 10SM CLR M02/M09 A2930 RMK AO2 SLP925 T10221094
PAIL 211853Z 36009KT 10SM CLR M04/M10 A2930 RMK AO2 SLP926 T10391100
PAIL 211753Z 36010KT 10SM CLR M06/M09 A2930 RMK AO2 SLP925 T10561094 11039 21056 50001
PAIL 211653Z 01009KT 10SM FEW038 M05/M09 A2930 RMK AO2 SLP926 T10501094
PAIL 211553Z 36010KT 10SM BKN037 M04/M09 A2930 RMK AO2 SLP925 T10441094
PAIL 211453Z 36009KT 10SM BKN040 BKN055 M04/M09 A2929 RMK AO2 SLP923 T10441094 56004
PAIL 211353Z 35008KT 10SM FEW039 OVC055 M04/M09 A2930 RMK AO2 SLP923 T10391094
PAIL 211253Z AUTO 35009KT 10SM FEW036 SCT043 OVC065 M04/M09 A2930 RMK AO2 SLP925 T10391089 TSNO
PAIL 211153Z AUTO 36008KT 10SM BKN037 OVC046 M04/M09 A2931 RMK AO2 SLP927 T10391094 11039 21056 53002 TSNO
PAIL 211053Z AUTO 36009KT 10SM OVC060 M04/M09 A2930 RMK AO2 SLP926 T10391094 TSNO
PAIL 210953Z AUTO 36008KT 10SM SCT048 OVC060 M04/M09 A2930 RMK AO2 SLP924 T10441094 TSNO
PAIL 210853Z AUTO 01008KT 10SM FEW038 SCT055 M04/M11 A2930 RMK AO2 SLP924 T10441106 410061094 53002 TSNO
PAIL 210753Z AUTO 36006KT 10SM SCT035 BKN046 M04/M11 A2929 RMK SLP923 T10441111 TSNO VIA AUTODIAL
PAIL 210653Z AUTO 35006KT 10SM BKN040 M05/M11 A2929 RMK SLP923 T10501106 TSNO VIA AUTODIAL
PAIL 210553Z AUTO 34007KT 10SM SCT085 M06/M11 A2929 RMK AO2 SLP923 T10561106 11006 21061 53006 TSNO
PAIL 210453Z 35006KT 10SM FEW085 M06/M11 A2928 RMK AO2 SLP920 T10561106
PAIL 210353Z 01003KT 10SM FEW085 M04/M11 A2928 RMK AO2 SLP919 T10441106
PAIL 210253Z 00000KT 10SM FEW080 SCT130 M02/M11 A2928 RMK AO2 SLP917 T10221106 55001
PAIL 210153Z 00000KT 10SM FEW085 SCT130 M01/M12 A2927 RMK AO2 SLP915 T10111117
PAIL 210053Z 35003KT 10SM FEW085 SCT130 M01/M11 A2927 RMK AO2 SLP917 T10061111
PAIL 202353Z VRB03KT 10SM FEW085 SCT130 M01/M11 A2928 RMK AO2 SLP918 T10061111 11006 21067 58011
PAIL 202253Z 02003KT 10SM FEW100 SCT130 M01/M11 A2929 RMK SLP922 T10061111 VIA AUTODIAL
PAIL 202153Z 02007KT 10SM FEW100 SCT130 M02/M09 A2930 RMK SLP924 T10171094 VIA AUTODIAL
PAIL 202053Z 01006KT 10SM CLR M03/M09 A2931 RMK SLP929 T10281089 58001 VIA AUTODIAL
PAIL 201953Z 01010KT 10SM CLR M04/M10 A2931 RMK SLP931 T10441100 VIA AUTODIAL
PAIL 201853Z 35007KT 10SM CLR M06/M11 A2931 RMK SLP930 T10561106 VIA AUTODIAL
PAIL 201753Z 35008KT 10SM CLR M07/M12 A2931 RMK SLP929 T10671122 11061 21094 56006 VIA AUTODIAL
PAIL 201653Z 35004KT 10SM CLR M08/M12 A2932 RMK SLP931 T10831122 VIA AUTODIAL
PAIL 201553Z 35009KT 10SM CLR M08/M12 A2932 RMK SLP933 T10831117 VIA AUTODIAL
PAIL 201453Z 35008KT 10SM CLR M08/M12 A2933 RMK SLP936 T10831117 56007 VIA AUTODIAL
PAIL 201353Z 34008KT 10SM CLR M06/M12 A2934 RMK SLP939 T10611122 VIA AUTODIAL